Time;durP1;ratioP1;P1;durP2;ratioP2;P2;SDS_P1;SDS_P2;PMS_P1;PMS_P2;Temp;Humidity;BMP_temperature;BMP_pressure;BME280_temperature;BME280_humidity;BME280_pressure;Samples;Min_cycle;Max_cycle;Signal;HPM_P1;HPM_P2
2023/02/10 00:01:39;;;;;;;23.70;13.90;;;-0.30;68.10;;;3.15;44.71;99402.56;5025041;28;20045;-44
2023/02/10 00:04:07;;;;;;;23.83;11.93;;;-0.40;68.10;;;3.15;44.76;99396.47;5033585;28;20038;-44
2023/02/10 00:06:35;;;;;;;27.10;14.77;;;-0.40;68.50;;;3.12;44.92;99396.59;5034603;28;20042;-46
2023/02/10 00:09:03;;;;;;;24.40;12.37;;;-0.40;68.50;;;3.14;44.90;99398.25;5034112;28;20468;-44
2023/02/10 00:14:19;;;;;;;24.20;13.97;;;-0.30;68.40;;;3.18;45.04;99408.63;5033480;28;20050;-47
2023/02/10 00:16:50;;;;;;;25.57;14.67;;;-0.30;68.20;;;3.18;44.51;99404.22;5032735;28;20053;-43
2023/02/10 00:19:24;;;;;;;27.37;13.57;;;-0.30;68.30;;;3.18;44.71;99406.88;5032594;28;20041;-48
2023/02/10 00:21:51;;;;;;;26.37;14.63;;;-0.30;68.30;;;3.21;44.78;99404.06;5033493;28;20049;-45
2023/02/10 00:24:21;;;;;;;28.93;15.80;;;-0.20;68.20;;;3.23;44.95;99407.47;5033366;28;20052;-44
2023/02/10 00:26:49;;;;;;;25.33;14.77;;;-0.20;68.10;;;3.26;44.77;99402.09;5032294;28;20535;-46
2023/02/10 00:29:17;;;;;;;24.63;14.47;;;-0.20;68.10;;;3.28;44.53;99402.03;5032275;28;20524;-45
2023/02/10 00:31:46;;;;;;;28.47;14.60;;;-0.20;67.90;;;3.27;44.81;99398.50;5024860;28;20046;-45
2023/02/10 00:34:17;;;;;;;25.50;15.03;;;-0.20;68.10;;;3.29;44.88;99399.28;5014796;28;20497;-44
2023/02/10 00:36:48;;;;;;;25.20;15.40;;;-0.10;68.10;;;3.30;44.93;99406.28;5025560;28;20404;-47
2023/02/10 00:39:17;;;;;;;29.30;14.57;;;-0.10;68.20;;;3.28;45.06;99408.13;5032402;28;20045;-45
2023/02/10 00:41:45;;;;;;;32.13;14.27;;;-0.10;68.30;;;3.29;44.96;99414.25;5040002;28;20052;-43
2023/02/10 00:44:12;;;;;;;27.13;15.20;;;-0.10;68.20;;;3.32;45.04;99416.75;5033107;28;20041;-45
2023/02/10 00:46:40;;;;;;;28.70;14.90;;;-0.10;68.20;;;3.34;45.08;99417.53;5031622;28;20492;-44
2023/02/10 00:49:10;;;;;;;28.17;14.50;;;-0.10;68.10;;;3.33;45.25;99416.69;5032022;28;20053;-43
2023/02/10 00:51:38;;;;;;;25.20;13.67;;;0.00;67.90;;;3.37;44.94;99422.63;5023840;28;20056;-44
2023/02/10 00:54:05;;;;;;;25.90;14.07;;;0.00;67.80;;;3.38;44.93;99421.72;5032628;28;20382;-44
2023/02/10 00:56:33;;;;;;;25.40;14.30;;;0.00;67.70;;;3.39;44.99;99419.94;5032656;28;20052;-47
2023/02/10 00:59:00;;;;;;;22.07;12.77;;;0.00;67.60;;;3.41;44.86;99418.06;5031249;28;20144;-45
2023/02/10 01:01:28;;;;;;;29.00;12.40;;;0.00;67.50;;;3.44;44.80;99417.94;5032758;28;20057;-46
2023/02/10 01:03:56;;;;;;;26.63;14.33;;;0.00;67.60;;;3.42;44.69;99415.38;5031058;28;20057;-45
2023/02/10 01:06:23;;;;;;;30.83;15.23;;;0.00;67.60;;;3.42;44.73;99412.75;5031818;28;20049;-44
2023/02/10 01:08:51;;;;;;;25.93;14.23;;;0.00;67.60;;;3.41;45.08;99416.28;5031084;28;20124;-47
2023/02/10 01:11:20;;;;;;;26.67;15.03;;;0.00;68.60;;;3.38;45.11;99424.34;5032408;28;20521;-44
2023/02/10 01:13:47;;;;;;;23.77;15.43;;;-0.10;67.80;;;3.35;44.89;99421.84;5023035;28;20061;-46
2023/02/10 01:16:16;;;;;;;24.90;14.67;;;-0.10;67.90;;;3.34;45.03;99426.25;5031451;28;20052;-45
2023/02/10 01:18:45;;;;;;;25.03;13.13;;;-0.10;68.00;;;3.34;44.95;99430.69;5023802;28;20508;-44
2023/02/10 01:21:18;;;;;;;22.97;12.33;;;-0.20;68.00;;;3.36;44.95;99434.09;5031087;28;20053;-45
2023/02/10 01:23:47;;;;;;;24.45;13.65;;;-0.10;68.10;;;3.39;44.82;99428.66;5019184;28;20065;-47
2023/02/10 01:26:15;;;;;;;24.40;13.87;;;-0.10;67.80;;;3.38;44.68;99424.34;5031356;28;20406;-44
2023/02/10 01:28:43;;;;;;;28.57;14.00;;;-0.10;67.80;;;3.36;44.68;99423.56;5031261;28;20045;-44
2023/02/10 01:31:20;;;;;;;27.30;15.17;;;-0.10;67.90;;;3.35;44.88;99435.00;5031100;28;20045;-45
2023/02/10 01:33:52;;;;;;;31.53;15.80;;;-0.10;67.90;;;3.35;45.00;99433.25;5023638;28;20053;-44
2023/02/10 01:36:22;;;;;;;30.77;15.47;;;-0.10;68.00;;;3.36;44.94;99436.72;5022549;28;20046;-44
2023/02/10 01:38:50;;;;;;;27.63;14.60;;;-0.10;68.00;;;3.35;45.06;99442.91;5030714;28;20045;-44
2023/02/10 01:41:22;;;;;;;30.40;14.13;;;-0.10;68.00;;;3.30;45.29;99445.78;5022956;28;20049;-45
2023/02/10 01:44:05;;;;;;;23.70;13.23;;;-0.20;68.00;;;3.27;45.09;99434.53;5023285;28;20042;-45
2023/02/10 01:46:35;;;;;;;26.70;13.45;;;-0.20;68.10;;;3.26;45.25;99438.94;5030597;28;20057;-44
2023/02/10 01:49:10;;;;;;;26.97;14.33;;;-0.20;68.00;;;3.26;45.27;99438.94;5030466;28;20052;-45
2023/02/10 01:52:20;;;;;;;30.00;14.23;;;-0.20;67.80;;;3.24;45.26;99450.44;5014357;28;20416;-46
2023/02/10 01:54:56;;;;;;;24.90;13.60;;;-0.10;67.90;;;3.34;45.11;99449.97;4992777;28;20045;-45
2023/02/10 01:57:24;;;;;;;24.73;14.50;;;-0.10;67.80;;;3.33;45.19;99450.91;5017737;28;20041;-47
2023/02/10 01:59:52;;;;;;;25.47;13.77;;;-0.20;67.90;;;3.29;45.10;99451.94;5029301;28;20045;-46
2023/02/10 02:02:21;;;;;;;27.87;14.63;;;-0.20;67.90;;;3.31;45.01;99443.97;5030153;28;20056;-47
2023/02/10 02:04:59;;;;;;;29.13;13.93;;;-0.20;67.90;;;3.26;45.05;99449.47;5023324;28;20394;-45
2023/02/10 02:07:33;;;;;;;30.87;16.07;;;-0.20;68.10;;;3.26;45.26;99453.88;5029954;28;20521;-44
2023/02/10 02:10:05;;;;;;;24.45;14.25;;;-0.30;68.20;;;3.25;44.78;99453.00;5030211;28;20049;-44
2023/02/10 02:12:54;;;;;;;25.53;13.87;;;-0.30;68.30;;;3.19;45.04;99452.47;5013668;28;20057;-44
2023/02/10 02:15:33;;;;;;;26.87;14.43;;;-0.30;68.40;;;3.21;45.01;99458.50;5030303;28;20064;-47
2023/02/10 02:18:27;;;;;;;23.67;13.80;;;-0.30;68.60;;;3.12;44.89;99462.38;5031414;28;20048;-45
2023/02/10 02:21:35;;;;;;;26.43;14.33;;;-0.40;68.70;;;3.07;45.00;99467.03;5007557;28;20053;-45
2023/02/10 02:24:43;;;;;;;30.20;13.97;;;-0.40;68.70;;;3.05;45.40;99474.16;5018369;28;20038;-43
2023/02/10 02:27:51;;;;;;;27.20;14.67;;;-0.40;68.90;;;3.02;45.23;99472.47;5024654;28;20057;-43
2023/02/10 02:31:02;;;;;;;26.10;13.90;;;-0.40;69.10;;;2.99;45.33;99469.16;5042284;28;20698;-45
2023/02/10 02:34:01;;;;;;;27.63;15.20;;;-0.40;69.10;;;2.99;45.23;99474.44;5027453;28;20065;-43
2023/02/10 02:36:40;;;;;;;25.83;12.57;;;-0.40;69.20;;;3.04;45.32;99467.16;5012806;28;20053;-45
2023/02/10 02:39:07;;;;;;;31.67;14.40;;;-0.50;69.20;;;3.02;45.07;99464.59;5030061;28;20046;-44
2023/02/10 02:41:35;;;;;;;27.20;13.23;;;-0.50;69.30;;;3.04;45.08;99468.00;5031142;28;20045;-44
2023/02/10 02:44:07;;;;;;;28.03;14.87;;;-0.50;69.30;;;3.06;45.20;99470.56;5029202;28;20045;-45
2023/02/10 02:46:58;;;;;;;27.60;15.57;;;-0.50;69.50;;;3.01;45.00;99462.91;5021212;28;20065;-46
2023/02/10 02:49:50;;;;;;;25.53;13.77;;;-0.50;69.50;;;3.01;45.05;99472.56;5029696;28;20054;-46
2023/02/10 02:52:38;;;;;;;33.87;16.33;;;-0.50;69.50;;;3.02;45.20;99467.22;5029685;28;20034;-45
2023/02/10 02:55:24;;;;;;;24.60;14.23;;;-0.50;69.70;;;2.99;45.44;99464.75;5029653;28;20049;-44
2023/02/10 02:58:08;;;;;;;23.00;13.40;;;-0.50;69.50;;;3.01;45.15;99465.53;5023438;28;20509;-46
2023/02/10 03:00:38;;;;;;;26.03;13.70;;;-0.60;69.60;;;2.99;45.05;99472.63;5014084;28;20042;-43
2023/02/10 03:03:07;;;;;;;26.30;13.80;;;-0.60;69.60;;;3.01;45.02;99469.94;5021679;28;20045;-43
2023/02/10 03:05:35;;;;;;;28.07;14.53;;;-0.50;69.50;;;2.97;45.33;99474.47;5030892;28;20046;-48
2023/02/10 03:08:03;;;;;;;27.10;14.20;;;-0.60;69.50;;;2.95;45.56;99473.69;5013516;28;20057;-48
2023/02/10 03:10:30;;;;;;;25.70;13.57;;;-0.60;69.30;;;2.94;45.12;99472.81;5031028;28;20053;-44
2023/02/10 03:12:58;;;;;;;22.10;13.70;;;-0.60;69.10;;;2.92;45.30;99472.03;5034524;28;20049;-45
2023/02/10 03:15:26;;;;;;;30.50;15.13;;;-0.60;68.90;;;2.95;45.22;99471.91;5033540;28;20056;-45
2023/02/10 03:17:53;;;;;;;24.57;12.60;;;-0.60;69.00;;;2.94;45.04;99472.81;5034688;28;20046;-47
2023/02/10 03:20:21;;;;;;;24.37;13.63;;;-0.60;68.60;;;2.95;44.73;99476.34;5034782;28;20380;-45
2023/02/10 03:22:48;;;;;;;24.03;12.50;;;-0.60;68.30;;;2.95;44.77;99476.34;5033112;28;20052;-47
2023/02/10 03:25:16;;;;;;;23.00;12.73;;;-0.60;68.00;;;2.97;44.98;99469.22;5034751;28;20049;-44
2023/02/10 03:27:43;;;;;;;26.43;13.73;;;-0.60;68.00;;;2.95;44.88;99473.69;5034470;28;20046;-46
2023/02/10 03:30:11;;;;;;;24.57;13.20;;;-0.60;67.70;;;2.93;45.04;99478.19;5034666;28;20048;-45
2023/02/10 03:32:38;;;;;;;26.47;12.87;;;-0.60;67.70;;;2.92;44.67;99476.47;5033911;28;20045;-43
2023/02/10 03:35:06;;;;;;;26.73;15.07;;;-0.60;67.60;;;2.93;44.62;99479.03;5034479;28;20049;-43
2023/02/10 03:37:34;;;;;;;23.53;12.90;;;-0.60;67.60;;;2.89;45.07;99487.97;5034137;28;20502;-44
2023/02/10 03:40:01;;;;;;;22.90;11.57;;;-0.70;67.70;;;2.86;44.76;99492.53;5034427;28;20048;-44
2023/02/10 03:42:29;;;;;;;27.00;13.27;;;-0.70;67.70;;;2.84;44.75;99492.56;5033733;28;20056;-45
2023/02/10 03:44:56;;;;;;;23.70;11.50;;;-0.70;67.80;;;2.81;45.15;99490.09;5034415;28;20049;-44
2023/02/10 03:47:24;;;;;;;23.30;13.03;;;-0.70;67.80;;;2.82;45.01;99490.94;5034304;28;20397;-45
2023/02/10 03:49:52;;;;;;;27.00;14.37;;;-0.70;67.80;;;2.81;44.88;99489.22;5034113;28;20046;-47
2023/02/10 03:52:19;;;;;;;24.80;13.87;;;-0.80;67.80;;;2.79;45.17;99491.06;5041224;28;20064;-48
2023/02/10 03:54:47;;;;;;;21.13;12.37;;;-0.80;68.00;;;2.79;44.96;99494.53;5033880;28;20420;-46
2023/02/10 03:57:14;;;;;;;23.33;12.77;;;-0.80;67.90;;;2.78;45.21;99490.22;5033917;28;20045;-45
2023/02/10 03:59:42;;;;;;;28.73;13.10;;;-0.80;68.20;;;2.75;45.11;99496.47;5033994;28;20412;-45
2023/02/10 04:02:10;;;;;;;27.00;14.17;;;-0.80;68.20;;;2.78;45.08;99502.53;5033767;28;20497;-43
2023/02/10 04:04:37;;;;;;;22.50;12.43;;;-0.80;68.50;;;2.77;44.88;99509.53;5033578;28;20042;-45
2023/02/10 04:07:05;;;;;;;21.90;12.53;;;-0.80;68.30;;;2.74;44.73;99505.28;5033819;28;20033;-46
2023/02/10 04:09:33;;;;;;;24.67;12.77;;;-0.80;68.60;;;2.73;45.41;99510.59;5033805;28;20390;-49
2023/02/10 04:12:00;;;;;;;26.17;12.07;;;-0.80;68.20;;;2.72;44.85;99504.50;5033484;28;20535;-44
2023/02/10 04:14:28;;;;;;;25.17;14.17;;;-0.90;68.40;;;2.66;45.09;99499.50;5033493;28;20049;-44
2023/02/10 04:16:55;;;;;;;26.70;14.33;;;-1.00;68.50;;;2.62;45.36;99497.06;5032302;28;20046;-46
2023/02/10 04:19:23;;;;;;;23.77;13.27;;;-1.00;69.00;;;2.57;44.97;99505.16;5033643;28;20045;-43
2023/02/10 04:21:50;;;;;;;24.63;12.70;;;-1.00;69.20;;;2.54;45.44;99502.66;5032701;28;20401;-45
2023/02/10 04:24:18;;;;;;;28.93;14.23;;;-1.10;69.40;;;2.54;45.18;99507.94;5031071;28;20046;-44
2023/02/10 04:26:45;;;;;;;27.63;15.63;;;-1.10;69.40;;;2.52;45.05;99497.47;5033754;28;20042;-45
2023/02/10 04:29:13;;;;;;;28.63;13.97;;;-1.10;69.30;;;2.52;44.92;99501.84;5033390;28;20054;-43
2023/02/10 04:31:40;;;;;;;23.37;13.83;;;-1.10;69.10;;;2.51;44.94;99500.16;5033318;28;20064;-47
2023/02/10 04:34:08;;;;;;;21.43;12.47;;;-1.10;69.10;;;2.52;45.02;99508.00;5033423;28;20045;-45
2023/02/10 04:36:36;;;;;;;22.53;12.50;;;-1.10;68.70;;;2.53;45.23;99503.56;5033249;28;20050;-44
2023/02/10 04:39:03;;;;;;;24.23;13.13;;;-1.10;68.80;;;2.50;45.43;99507.19;5033231;28;20038;-44
2023/02/10 04:41:31;;;;;;;23.57;13.17;;;-1.00;68.90;;;2.51;44.90;99505.41;5033353;28;20049;-43
2023/02/10 04:43:58;;;;;;;24.93;12.73;;;-1.10;68.70;;;2.51;45.45;99505.41;5032479;28;20041;-44
2023/02/10 04:46:26;;;;;;;31.57;13.37;;;-1.00;68.70;;;2.51;45.52;99506.25;5033170;28;20068;-44
2023/02/10 04:48:53;;;;;;;22.47;13.73;;;-1.00;68.70;;;2.52;45.07;99512.38;5033161;28;20049;-45
2023/02/10 04:51:21;;;;;;;29.77;13.00;;;-1.00;68.60;;;2.52;45.47;99509.75;5033295;28;20421;-44
2023/02/10 04:53:48;;;;;;;22.83;12.67;;;-1.00;68.70;;;2.51;45.30;99513.31;5032527;28;20049;-45
2023/02/10 04:56:16;;;;;;;24.77;13.70;;;-1.00;68.80;;;2.52;45.03;99512.38;5033048;28;20069;-45
2023/02/10 04:58:43;;;;;;;27.83;13.60;;;-1.00;68.70;;;2.51;45.50;99516.78;5032664;28;20045;-46
2023/02/10 05:01:11;;;;;;;23.90;12.60;;;-1.00;68.60;;;2.54;45.17;99508.78;5032931;28;20041;-45
2023/02/10 05:03:39;;;;;;;28.17;13.83;;;-1.00;68.60;;;2.54;45.54;99508.78;5032586;28;20605;-44
2023/02/10 05:06:13;;;;;;;29.27;14.50;;;-1.00;68.70;;;2.54;44.80;99511.41;5032714;28;20112;-44
2023/02/10 05:08:41;;;;;;;;;;;-1.00;68.70;;;2.44;45.05;99523.22;5033263;28;20525;-44
2023/02/10 05:11:11;;;;;;;23.53;13.63;;;-1.00;68.90;;;2.55;45.21;99520.13;5032720;28;19928;-47
2023/02/10 05:13:40;;;;;;;24.00;12.47;;;-1.00;68.90;;;2.54;45.08;99521.91;5032270;28;20045;-43
2023/02/10 05:16:10;;;;;;;24.50;14.27;;;-1.00;68.90;;;2.55;45.25;99517.50;5032691;28;20042;-43
2023/02/10 05:18:39;;;;;;;27.03;14.30;;;-1.00;68.70;;;2.55;45.21;99523.63;5032200;28;20093;-44
2023/02/10 05:21:08;;;;;;;27.73;13.57;;;-0.90;68.70;;;2.57;45.60;99531.44;5031393;28;20049;-45
2023/02/10 05:23:36;;;;;;;28.50;13.83;;;-0.90;68.70;;;2.62;45.13;99525.97;5031808;28;20441;-45
2023/02/10 05:26:04;;;;;;;30.63;14.57;;;-0.90;68.50;;;2.64;45.25;99525.00;5032487;28;20041;-47
2023/02/10 05:28:31;;;;;;;30.47;15.50;;;-0.80;68.30;;;2.66;45.37;99525.81;5032326;28;20413;-46
2023/02/10 05:31:04;;;;;;;26.73;13.77;;;-0.80;68.10;;;2.69;44.99;99528.28;5024850;28;20042;-47
2023/02/10 05:33:34;;;;;;;27.07;14.93;;;-0.80;68.00;;;2.71;45.24;99528.22;5032107;28;20056;-47
2023/02/10 05:36:02;;;;;;;31.67;16.37;;;-0.80;67.90;;;2.68;45.40;99542.38;5024539;28;20412;-46
2023/02/10 05:38:29;;;;;;;28.90;15.40;;;-0.80;68.80;;;2.66;44.93;99538.94;5032311;28;20405;-45
2023/02/10 05:40:57;;;;;;;29.27;15.87;;;-0.80;68.00;;;2.70;45.25;99537.06;5032121;28;20040;-44
2023/02/10 05:43:25;;;;;;;30.00;15.43;;;-0.80;68.10;;;2.68;45.38;99537.13;5031818;28;20049;-44
2023/02/10 05:45:52;;;;;;;28.93;14.80;;;-0.80;68.00;;;2.69;45.46;99543.22;5032004;28;20420;-50
2023/02/10 05:48:20;;;;;;;29.03;14.20;;;-0.80;67.90;;;2.70;45.20;99542.31;5032343;28;20551;-44
2023/02/10 05:50:51;;;;;;;25.27;13.17;;;-0.80;67.80;;;2.69;45.23;99546.69;5032051;28;20417;-46
2023/02/10 05:53:19;;;;;;;25.70;13.87;;;-0.80;68.00;;;2.71;44.86;99544.00;5031650;28;20053;-45
2023/02/10 05:55:47;;;;;;;27.33;14.37;;;-0.80;68.00;;;2.70;44.91;99545.78;5031869;28;20072;-45
2023/02/10 05:58:15;;;;;;;32.90;15.77;;;-0.80;68.00;;;2.70;44.82;99547.56;5030216;28;20053;-44
2023/02/10 06:00:42;;;;;;;28.63;13.57;;;-0.80;67.90;;;2.70;44.94;99553.69;5031777;28;20053;-44
2023/02/10 06:03:10;;;;;;;30.77;14.50;;;-0.80;68.10;;;2.69;44.89;99559.84;5031289;28;20044;-46
2023/02/10 06:05:39;;;;;;;27.47;15.90;;;-0.80;68.00;;;2.66;45.07;99553.88;5031606;28;20041;-47
2023/02/10 06:08:06;;;;;;;43.87;19.67;;;-0.90;67.90;;;2.63;45.17;99567.16;5031839;28;20045;-43
2023/02/10 06:10:34;;;;;;;37.33;17.53;;;-0.90;68.20;;;2.61;44.92;99579.50;5031373;28;20508;-45
2023/02/10 06:13:01;;;;;;;43.63;20.80;;;-1.00;68.20;;;2.53;45.26;99579.81;5023430;28;20049;-44
2023/02/10 06:15:29;;;;;;;64.27;25.67;;;-1.00;68.40;;;2.51;45.09;99586.94;5031525;28;20045;-45
2023/02/10 06:17:56;;;;;;;32.43;16.00;;;-1.10;68.80;;;2.46;45.38;99589.75;5031455;28;20405;-47
2023/02/10 06:20:24;;;;;;;37.97;16.80;;;-1.20;68.70;;;2.43;45.02;99592.50;5031350;28;20050;-45
2023/02/10 06:22:51;;;;;;;34.23;17.17;;;-1.20;68.80;;;2.36;45.42;99597.16;5031035;28;20048;-44
2023/02/10 06:25:19;;;;;;;45.00;19.20;;;-1.30;68.80;;;2.31;45.62;99595.63;5031429;28;20045;-46
2023/02/10 06:27:46;;;;;;;48.57;20.27;;;-1.30;69.30;;;2.26;45.43;99603.69;5029874;28;20281;-44
2023/02/10 06:30:14;;;;;;;43.07;19.57;;;-1.40;69.50;;;2.21;45.03;99594.25;5031263;28;20072;-46
2023/02/10 06:32:41;;;;;;;51.90;22.70;;;-1.40;69.50;;;2.19;45.29;99606.63;5030620;28;20053;-43
2023/02/10 06:35:09;;;;;;;41.07;19.87;;;-1.50;69.60;;;2.14;45.14;99604.19;5038473;28;20045;-43
2023/02/10 06:37:37;;;;;;;44.80;20.30;;;-1.50;69.90;;;2.07;45.51;99607.94;5030837;28;20068;-47
2023/02/10 06:40:05;;;;;;;47.03;22.33;;;-1.50;70.30;;;2.05;45.20;99609.78;5030773;28;20040;-44
2023/02/10 06:42:33;;;;;;;40.97;21.07;;;-1.60;70.60;;;2.03;45.42;99614.25;5030301;28;20072;-49
2023/02/10 06:45:00;;;;;;;37.97;18.97;;;-1.60;70.70;;;2.00;45.32;99611.72;5030170;28;20064;-46
2023/02/10 06:47:28;;;;;;;41.20;19.60;;;-1.60;70.80;;;1.97;45.53;99616.19;5030980;28;20041;-43
2023/02/10 06:49:55;;;;;;;41.37;18.47;;;-1.70;70.60;;;1.95;45.75;99623.25;5021355;28;20417;-47
2023/02/10 06:52:24;;;;;;;35.00;17.40;;;-1.70;70.90;;;1.93;45.28;99626.88;5030686;28;20075;-50
2023/02/10 06:54:52;;;;;;;30.00;16.27;;;-1.70;70.90;;;1.91;45.44;99626.09;5030316;28;20053;-45
2023/02/10 06:57:20;;;;;;;31.33;18.07;;;-1.70;70.80;;;1.92;45.77;99627.78;5029280;28;20049;-47
2023/02/10 06:59:47;;;;;;;31.80;16.00;;;-1.70;70.60;;;1.88;45.98;99629.69;5030624;28;20042;-43
2023/02/10 07:02:15;;;;;;;35.70;17.33;;;-1.70;70.80;;;1.84;45.73;99630.72;5030693;28;20049;-46
2023/02/10 07:04:42;;;;;;;28.53;14.47;;;-1.80;70.90;;;1.79;45.95;99629.19;5030856;28;20056;-45
2023/02/10 07:07:10;;;;;;;31.63;15.00;;;-1.80;71.40;;;1.77;46.03;99618.72;5030646;28;20038;-43
2023/02/10 07:09:37;;;;;;;28.97;15.10;;;-1.90;71.40;;;1.76;45.97;99632.75;5030792;28;20053;-46
2023/02/10 07:12:05;;;;;;;27.83;14.47;;;-1.90;71.90;;;1.76;46.35;99633.63;5030660;28;20045;-49
2023/02/10 07:14:32;;;;;;;29.07;15.83;;;-1.90;72.10;;;1.74;45.69;99629.34;5030386;28;20417;-43
2023/02/10 07:17:00;;;;;;;34.10;15.90;;;-1.90;72.20;;;1.70;46.49;99633.00;5030627;28;20045;-47
2023/02/10 07:19:28;;;;;;;34.83;16.93;;;-1.90;72.50;;;1.69;46.44;99624.25;5029520;28;20061;-43
2023/02/10 07:21:55;;;;;;;29.37;16.13;;;-1.90;72.30;;;1.71;46.20;99639.97;5030510;28;20046;-46
2023/02/10 07:24:23;;;;;;;34.13;17.87;;;-1.90;72.30;;;1.74;46.01;99640.69;5029199;28;20042;-45
2023/02/10 07:26:50;;;;;;;42.30;18.13;;;-1.80;72.40;;;1.77;46.56;99640.59;5029449;28;20049;-43
2023/02/10 07:29:18;;;;;;;49.53;20.60;;;-1.80;72.30;;;1.83;46.10;99636.88;5030716;28;20061;-43
2023/02/10 07:31:45;;;;;;;48.83;23.70;;;-1.70;72.30;;;1.89;45.97;99641.03;5030576;28;20056;-43
2023/02/10 07:34:13;;;;;;;53.43;25.37;;;-1.60;72.10;;;1.92;46.51;99641.78;5030244;28;20076;-45
2023/02/10 07:36:40;;;;;;;39.40;21.97;;;-1.70;72.10;;;1.92;46.36;99641.78;5028982;28;20054;-44
2023/02/10 07:39:08;;;;;;;43.00;20.60;;;-1.60;72.10;;;1.93;46.41;99648.75;5030148;28;20045;-44
2023/02/10 07:41:35;;;;;;;34.63;18.37;;;-1.60;72.10;;;1.96;46.34;99645.16;5030503;28;20044;-45
2023/02/10 07:44:04;;;;;;;35.07;19.07;;;-1.60;72.20;;;1.99;46.49;99639.78;5030109;28;20041;-47
2023/02/10 07:46:31;;;;;;;31.73;17.07;;;-1.60;72.10;;;2.02;46.20;99637.03;5030376;28;20057;-46
2023/02/10 07:48:59;;;;;;;31.37;16.57;;;-1.50;72.20;;;2.03;46.73;99632.63;5030046;28;20052;-47
2023/02/10 07:51:26;;;;;;;23.77;13.80;;;-1.50;72.10;;;2.07;46.34;99623.72;5030403;28;20045;-47
2023/02/10 07:53:54;;;;;;;26.10;14.33;;;-1.50;72.00;;;2.09;46.29;99630.63;5029842;28;20037;-44
2023/02/10 07:56:21;;;;;;;28.47;15.67;;;-1.40;71.60;;;2.13;46.40;99620.84;5030305;28;20041;-48
2023/02/10 07:58:49;;;;;;;30.63;15.87;;;-1.30;71.10;;;2.12;46.61;99624.41;5032637;28;20041;-44
2023/02/10 08:01:16;;;;;;;28.57;14.53;;;-1.30;70.90;;;2.13;46.30;99624.34;5033763;28;20069;-45
2023/02/10 08:03:44;;;;;;;25.87;14.50;;;-1.20;70.80;;;2.18;46.87;99629.41;5033420;28;20057;-45
2023/02/10 08:06:12;;;;;;;30.90;15.37;;;-1.20;70.90;;;2.24;46.18;99631.78;5033822;28;20057;-47
2023/02/10 08:08:39;;;;;;;30.73;15.00;;;-1.20;70.80;;;2.27;46.41;99630.81;5033472;28;20437;-44
2023/02/10 08:11:07;;;;;;;30.97;14.43;;;-1.20;71.10;;;2.31;46.41;99646.41;5033561;28;20041;-46
2023/02/10 08:13:34;;;;;;;30.90;15.27;;;-1.20;71.50;;;2.36;46.66;99640.97;5033253;28;20045;-45
2023/02/10 08:16:07;;;;;;;29.60;16.03;;;-1.20;71.40;;;2.43;46.17;99645.06;5033294;28;20076;-44
2023/02/10 08:18:35;;;;;;;32.83;17.55;;;-1.10;72.10;;;2.47;46.47;99648.44;5032430;28;20524;-47
2023/02/10 08:21:03;;;;;;;31.53;16.87;;;-1.00;71.10;;;2.48;46.45;99645.75;5032305;28;20045;-44
2023/02/10 08:23:32;;;;;;;30.87;15.47;;;-1.10;71.00;;;2.50;45.65;99650.94;5033175;28;20049;-44
2023/02/10 08:26:07;;;;;;;32.50;15.63;;;-1.00;71.20;;;2.53;46.29;99645.56;5033612;28;20449;-43
2023/02/10 08:28:36;;;;;;;26.97;15.07;;;-1.00;71.60;;;2.59;46.19;99649.72;5033480;28;20052;-48
2023/02/10 08:31:08;;;;;;;26.33;14.47;;;-0.90;71.80;;;2.64;46.58;99651.25;5033183;28;20058;-43
2023/02/10 08:33:38;;;;;;;24.27;14.13;;;-0.90;71.60;;;2.67;46.56;99652.88;5033106;28;20072;-45
2023/02/10 08:36:16;;;;;;;26.93;14.70;;;-0.80;71.20;;;2.74;46.33;99659.63;5025742;28;20045;-45
2023/02/10 08:38:45;;;;;;;59.87;23.27;;;-0.80;71.10;;;2.78;46.35;99653.31;5033201;28;20441;-45
2023/02/10 08:41:13;;;;;;;29.73;16.13;;;-0.70;71.10;;;2.84;46.21;99657.47;5031961;28;20041;-44
2023/02/10 08:43:41;;;;;;;35.47;15.33;;;-0.70;70.80;;;2.86;46.30;99653.00;5032611;28;20417;-46
2023/02/10 08:46:10;;;;;;;56.00;21.50;;;-0.60;70.60;;;2.93;46.47;99651.84;5033114;28;20409;-44
2023/02/10 08:48:38;;;;;;;30.73;14.50;;;-0.50;70.50;;;2.98;46.20;99643.72;5031645;28;20068;-45
2023/02/10 08:51:11;;;;;;;80.40;25.23;;;-0.50;70.10;;;3.03;45.86;99647.03;5032934;28;20045;-45
2023/02/10 08:53:38;;;;;;;64.40;23.97;;;-0.40;69.70;;;3.08;45.94;99645.94;5032452;28;20113;-46
2023/02/10 08:56:10;;;;;;;29.43;14.53;;;-0.30;69.80;;;3.12;46.42;99646.63;5033064;28;20485;-43
2023/02/10 08:58:38;;;;;;;30.73;14.60;;;-0.30;69.60;;;3.18;46.20;99648.13;5031688;28;20042;-45
2023/02/10 09:01:15;;;;;;;26.00;13.03;;;-0.20;69.80;;;3.22;46.08;99649.72;5032411;28;20038;-46
2023/02/10 09:03:43;;;;;;;27.33;15.07;;;-0.20;69.80;;;3.28;46.02;99644.22;5032395;28;20413;-44
2023/02/10 09:06:17;;;;;;;31.63;13.57;;;-0.20;69.80;;;3.34;46.04;99651.84;5024890;28;20041;-46
2023/02/10 09:08:47;;;;;;;31.23;15.43;;;-0.10;70.30;;;3.40;46.09;99656.00;5032085;28;20053;-45
2023/02/10 09:11:15;;;;;;;24.17;13.60;;;-0.10;70.40;;;3.44;45.98;99657.56;5025284;28;20046;-44
2023/02/10 09:13:43;;;;;;;30.60;14.97;;;0.00;70.50;;;3.50;46.05;99663.41;5032301;28;20420;-44
2023/02/10 09:16:12;;;;;;;27.23;14.63;;;0.00;70.40;;;3.57;46.17;99669.28;5024705;28;20048;-44
2023/02/10 09:18:39;;;;;;;22.33;13.27;;;0.10;70.30;;;3.61;45.92;99675.25;5031311;28;20064;-46
2023/02/10 09:21:08;;;;;;;24.83;12.80;;;0.10;70.00;;;3.66;45.90;99675.91;5032128;28;20037;-44
2023/02/10 09:23:37;;;;;;;21.33;12.37;;;0.10;69.70;;;3.71;45.69;99668.66;5030898;28;20041;-47
2023/02/10 09:26:04;;;;;;;38.37;16.67;;;0.30;69.70;;;3.77;45.96;99673.66;5032400;28;20049;-44
2023/02/10 09:28:32;;;;;;;25.37;13.83;;;0.30;69.10;;;3.82;45.91;99674.31;5031104;28;20045;-43
2023/02/10 09:31:00;;;;;;;28.13;16.37;;;0.40;68.80;;;3.91;46.07;99673.03;5031912;28;20420;-44
2023/02/10 09:33:27;;;;;;;41.30;17.17;;;0.50;68.60;;;4.00;45.66;99677.03;5030648;28;20053;-46
2023/02/10 09:35:55;;;;;;;31.73;16.50;;;0.70;67.40;;;4.01;45.58;99668.19;5032070;28;20053;-45
2023/02/10 09:38:23;;;;;;;52.27;19.90;;;0.70;67.40;;;4.03;45.38;99666.34;5031647;28;20053;-45
2023/02/10 09:41:25;;;;;;;25.83;13.47;;;0.90;67.20;;;4.10;45.63;99662.50;5031715;28;20048;-45
2023/02/10 09:44:15;;;;;;;27.27;14.47;;;0.90;66.80;;;4.19;45.71;99659.44;5031585;28;20044;-45
2023/02/10 09:47:23;;;;;;;28.40;12.90;;;1.00;65.70;;;4.24;45.20;99665.34;5031275;28;20050;-47
2023/02/10 09:50:00;;;;;;;24.03;12.93;;;1.10;65.80;;;4.38;45.77;99663.81;5028937;28;20045;-45
2023/02/10 09:52:48;;;;;;;23.13;13.20;;;1.10;65.80;;;4.47;45.18;99663.41;5030400;28;20052;-44
2023/02/10 09:55:35;;;;;;;24.03;12.33;;;1.20;65.70;;;4.52;45.14;99650.84;5024363;28;20058;-46
2023/02/10 09:58:27;;;;;;;30.80;14.97;;;1.30;65.50;;;4.55;45.22;99645.41;5030489;28;20054;-45
2023/02/10 10:01:12;;;;;;;25.90;13.73;;;1.40;65.10;;;4.65;44.85;99659.88;5030257;28;20045;-46
2023/02/10 10:04:24;;;;;;;21.30;11.83;;;1.40;65.10;;;4.68;45.66;99664.16;5030120;28;20045;-44
2023/02/10 10:07:21;;;;;;;32.53;16.43;;;1.50;65.10;;;4.82;45.05;99666.13;5027347;28;20425;-49
2023/02/10 10:10:22;;;;;;;25.30;13.40;;;1.60;65.30;;;4.88;45.31;99668.44;5030235;28;20048;-49
2023/02/10 10:12:50;;;;;;;23.87;11.97;;;1.70;64.90;;;5.00;44.73;99674.91;5029781;28;20120;-44
2023/02/10 10:15:19;;;;;;;20.33;12.00;;;1.70;64.40;;;5.04;44.06;99679.09;5031354;28;20049;-48
2023/02/10 10:18:19;;;;;;;26.20;13.43;;;1.80;64.00;;;5.06;44.68;99679.88;5030278;28;20048;-46
2023/02/10 10:20:56;;;;;;;24.07;12.03;;;1.80;63.50;;;5.16;44.53;99682.91;5026794;28;20061;-46
2023/02/10 10:23:26;;;;;;;20.33;10.30;;;1.80;63.50;;;5.20;43.75;99687.97;5023104;28;20524;-46
2023/02/10 10:26:42;;;;;;;22.27;11.27;;;1.90;61.60;;;5.18;43.89;99686.34;5027497;28;20041;-45
2023/02/10 10:30:01;;;;;;;21.73;12.87;;;1.90;59.10;;;5.19;43.50;99683.59;5030273;28;20429;-45
2023/02/10 10:32:45;;;;;;;21.17;10.77;;;1.90;58.90;;;5.23;42.89;99684.31;5023739;28;20413;-46
2023/02/10 10:35:41;;;;;;;19.40;9.85;;;1.90;59.60;;;5.23;43.19;99692.22;5031169;28;20048;-49